Latest Weather Observations for Mackay Airport

IDQ60801

Issued at 6:03 am EST Friday 30 September 2016 (issued every 30 minutes, with the page automatically refreshed every 10 minutes)

About weather observations | Map of weather stations | Latest weather observations for QLD | Other Formats
Station Details ID: 033045 Name: MACKAY AERO Lat: -21.17 Lon: 149.18 Height: 4.7 m
Data from the previous 72 hours. | See also: Recent months at Mackay Airport
Date/Time
EST
Temp
°C
App
Temp
°C
Dew
Point
°C
Rel
Hum
%
Delta-T
°C
Wind Press
QNH
hPa
Press
MSL
hPa
Rain since
9am
mm
Dir  Spd
km/h
Gust
km/h
Spd
kts
Gust
kts
30/06:00am 21.6 25.3 20.8 95 0.5 NNW 2 7 1 4 1009.1 1009.1 0.0
30/05:30am 22.1 24.6 21.1 94 0.7 NNW 9 13 5 7 1008.7 1008.7 0.0
30/05:00am 22.8 24.7 21.4 92 0.9 NNW 13 15 7 8 1008.2 1008.2 0.0
30/04:30am 23.1 24.8 21.7 92 0.9 NNW 15 19 8 10 1008.4 1008.4 0.0
30/04:00am 23.3 24.7 21.9 92 0.9 NNW 17 20 9 11 1008.2 1008.2 0.0
30/03:30am 23.6 24.8 21.5 88 1.4 NNW 17 20 9 11 1008.1 1008.1 0.0
30/03:00am 23.6 24.4 21.3 87 1.5 NNW 19 26 10 14 1008.1 1008.1 0.0
30/02:30am 23.6 24.3 21.5 88 1.4 NNW 20 32 11 17 1008.4 1008.4 0.0
30/02:00am 23.6 24.4 21.7 89 1.3 NNW 20 28 11 15 1008.5 1008.5 0.0
30/01:30am 23.5 24.4 21.6 89 1.3 NW 19 26 10 14 1008.7 1008.7 0.0
30/01:00am 23.7 23.9 21.4 87 1.5 NW 22 30 12 16 1008.9 1008.9 0.0
30/12:30am 23.9 24.7 21.8 88 1.4 NW 20 28 11 15 1009.0 1009.0 0.0
30/12:00am 23.9 25.4 22.0 89 1.3 NNW 17 22 9 12 1009.4 1009.4 0.0
 
Date/Time
EST
Temp
°C
App
Temp
°C
Dew
Point
°C
Rel
Hum
%
Delta-T
°C
Wind Press
QNH
hPa
Press
MSL
hPa
Rain since
9am
mm
Dir  Spd
km/h
Gust
km/h
Spd
kts
Gust
kts
29/11:30pm 23.8 25.4 22.1 90 1.1 NNW 17 22 9 12 1009.3 1009.3 0.0
29/11:20pm 23.8 25.0 22.1 90 1.1 NNW 19 24 10 13 1009.4 1009.4 0.0
29/11:07pm 24.0 25.0 22.1 89 1.3 NNW 20 24 11 13 1009.5 1009.5 0.0
29/11:00pm 24.2 25.3 21.9 87 1.5 NW 19 24 10 13 1009.6 1009.6 0.0
29/10:43pm 24.3 26.5 21.8 86 1.7 NNW 13 19 7 10 1009.7 1009.7 0.0
29/10:30pm 24.4 25.5 21.9 86 1.7 NW 19 26 10 14 1009.7 1009.7 0.0
29/10:08pm 24.6 25.7 22.3 87 1.5 NNW 20 32 11 17 1009.5 1009.5 0.0
29/10:00pm 24.7 25.7 22.2 86 1.7 NNW 20 32 11 17 1009.5 1009.5 0.0
29/09:30pm 24.7 25.7 21.8 84 1.9 NNW 19 28 10 15 1009.3 1009.3 0.0
29/09:00pm 24.6 26.0 21.9 85 1.8 N 17 22 9 12 1009.0 1009.0 0.0
29/08:30pm 24.4 24.9 21.9 86 1.7 N 22 30 12 16 1008.8 1008.8 0.0
29/08:00pm 24.6 23.8 21.7 84 1.9 NNW 28 39 15 21 1008.6 1008.6 0.0
29/07:30pm 24.2 24.9 21.5 85 1.8 NNW 20 28 11 15 1008.5 1008.5 0.0
29/07:00pm 24.2 24.0 21.3 84 1.9 NNW 24 33 13 18 1008.1 1008.1 0.0
29/06:30pm 24.4 24.5 21.1 82 2.2 NNW 22 32 12 17 1008.0 1008.0 0.0
29/06:00pm 24.5 24.1 21.0 81 2.3 N 24 33 13 18 1007.4 1007.4 0.0
29/05:30pm 25.1 24.7 21.0 78 2.7 NNW 24 35 13 19 1007.3 1007.3 0.0
29/05:00pm 25.4 24.1 20.6 75 3.1 N 28 39 15 21 1006.8 1006.8 0.0
29/04:30pm 25.6 23.8 20.4 73 3.4 N 30 41 16 22 1006.4 1006.4 0.0
29/04:00pm 26.0 24.0 19.9 69 4.0 N 30 37 16 20 1006.4 1006.4 0.0
29/03:30pm 26.2 24.8 20.5 71 3.7 NNW 28 39 15 21 1006.6 1006.6 0.0
29/03:00pm 26.4 25.8 20.5 70 3.9 N 24 33 13 18 1006.9 1006.9 0.0
29/02:30pm 26.5 26.1 21.0 72 3.6 NNW 24 33 13 18 1007.4 1007.4 0.0
29/02:00pm 25.9 26.8 20.9 74 3.3 N 17 24 9 13 1007.9 1007.9 0.0
29/01:30pm 24.6 26.1 20.5 78 2.7 NNW 13 17 7 9 1008.5 1008.5 0.0
29/01:00pm 24.1 26.6 20.2 79 2.5 N 7 11 4 6 1009.3 1009.3 0.0
29/12:30pm 23.9 26.2 19.4 76 2.9 NNW 6 9 3 5 1009.6 1009.6 0.0
29/12:00pm 24.2 26.8 18.4 70 3.7 SW 2 6 1 3 1010.0 1010.0 0.0
29/11:30am 24.1 25.1 18.7 72 3.4 SW 11 15 6 8 1010.7 1010.7 0.0
29/11:00am 24.0 24.8 18.2 70 3.6 W 11 13 6 7 1010.9 1010.9 0.0
29/10:30am 24.0 25.5 18.0 69 3.8 W 7 9 4 5 1011.1 1011.1 0.0
29/10:02am 24.1 25.6 17.6 67 4.0 WSW 6 11 3 6 1011.2 1011.2 0.0
29/10:00am 24.1 25.6 17.6 67 4.1 WSW 6 11 3 6 1011.2 1011.2 0.0
29/09:42am 24.0 25.1 17.0 65 4.3 WSW 7 11 4 6 1011.5 1011.5 0.0
29/09:30am 24.2 25.8 18.2 69 3.8 W 7 11 4 6 1011.7 1011.7 0.0
29/09:00am 22.9 23.5 16.7 68 3.8 W 9 13 5 7 1011.9 1011.9 0.0
29/08:30am 21.1 20.6 15.9 72 3.1 W 13 17 7 9 1012.1 1012.1 0.0
29/08:00am 20.1 20.0 15.9 77 2.5 W 11 13 6 7 1012.0 1012.0 0.0
29/07:30am 20.1 20.7 15.7 76 2.6 W 7 9 4 5 1011.7 1011.7 0.0
29/07:00am 19.4 20.0 15.9 80 2.1 W 7 9 4 5 1011.7 1011.7 0.0
29/06:30am 18.2 18.5 15.1 82 1.8 W 7 11 4 6 1011.6 1011.6 0.0
29/06:00am 16.8 16.6 14.6 87 1.3 W 9 13 5 7 1011.6 1011.6 0.0
29/05:30am 17.0 17.1 14.5 85 1.4 WSW 7 9 4 5 1011.4 1011.4 0.0
29/05:00am 16.3 16.0 14.3 88 1.1 WSW 9 11 5 6 1011.3 1011.3 0.0
29/04:30am 17.0 17.3 14.5 85 1.4 WSW 6 9 3 5 1011.1 1011.1 0.0
29/04:00am 16.9 17.2 14.9 88 1.2 WSW 7 9 4 5 1011.1 1011.1 0.0
29/03:30am 16.5 17.9 14.5 88 1.1 CALM 0 2 0 1 1011.3 1011.3 0.0
29/03:00am 16.4 15.6 14.1 86 1.3 WSW 11 15 6 8 1011.5 1011.5 0.0
29/02:30am 17.2 16.1 14.3 83 1.7 W 13 15 7 8 1011.3 1011.3 0.0
29/02:00am 17.7 17.5 14.8 83 1.7 W 9 11 5 6 1011.5 1011.5 0.0
29/01:30am 16.8 17.2 14.8 88 1.2 W 6 9 3 5 1011.5 1011.5 0.0
29/01:00am 16.3 16.7 14.7 90 0.9 W 6 7 3 4 1011.9 1011.9 0.0
29/12:30am 16.6 16.3 14.4 87 1.3 WSW 9 11 5 6 1012.3 1012.3 0.0
29/12:00am 17.4 17.8 15.2 87 1.3 W 7 20 4 11 1012.5 1012.5 0.0
 
Date/Time
EST
Temp
°C
App
Temp
°C
Dew
Point
°C
Rel
Hum
%
Delta-T
°C
Wind Press
QNH
hPa
Press
MSL
hPa
Rain since
9am
mm
Dir  Spd
km/h
Gust
km/h
Spd
kts
Gust
kts
28/11:30pm 17.3 17.6 14.6 84 1.6 SW 6 7 3 4 1012.5 1012.5 0.0
28/11:00pm 17.8 17.2 14.7 82 1.8 SW 11 13 6 7 1012.6 1012.6 0.0
28/10:30pm 17.5 17.1 14.2 81 1.9 WSW 9 11 5 6 1012.8 1012.8 0.0
28/10:00pm 18.4 18.8 14.7 79 2.1 WSW 6 11 3 6 1013.0 1013.0 0.0
28/09:30pm 20.1 20.0 15.9 77 2.5 W 11 13 6 7 1013.2 1013.2 0.0
28/09:00pm 21.9 21.6 15.5 67 3.8 NE 11 15 6 8 1012.8 1012.8 0.0
28/08:30pm 22.4 22.3 15.0 63 4.4 NE 9 13 5 7 1013.3 1013.3 0.0
28/08:00pm 22.7 21.9 15.0 61 4.6 NE 13 17 7 9 1012.9 1012.9 0.0
28/07:30pm 22.8 22.2 14.6 60 4.8 ENE 11 17 6 9 1013.0 1013.0 0.0
28/07:00pm 22.5 22.6 15.6 65 4.1 ENE 9 13 5 7 1012.9 1012.9 0.0
28/06:30pm 22.7 22.7 16.3 67 3.9 ENE 11 15 6 8 1012.7 1012.7 0.0
28/06:00pm 22.9 21.9 15.7 64 4.3 E 15 19 8 10 1012.1 1012.1 0.0
28/05:30pm 23.5 22.3 15.0 59 5.1 E 15 20 8 11 1012.1 1012.1 0.0
28/05:00pm 24.3 21.8 13.5 51 6.3 E 19 22 10 12 1012.1 1012.1 0.0
28/04:30pm 25.1 22.3 13.3 48 6.9 E 20 26 11 14 1011.7 1011.7 0.0
28/04:00pm 24.9 21.8 13.5 49 6.7 E 22 28 12 15 1011.6 1011.6 0.0
28/03:30pm 25.1 22.8 14.6 52 6.3 ESE 20 26 11 14 1011.6 1011.6 0.0
28/03:00pm 25.6 22.3 12.8 45 7.4 ESE 22 30 12 16 1011.9 1011.9 0.0
28/02:30pm 26.2 23.0 13.0 44 7.7 E 22 32 12 17 1011.9 1011.9 0.0
28/02:00pm 25.6 22.8 13.1 46 7.3 ESE 20 26 11 14 1012.6 1012.6 0.0
28/01:30pm 25.4 21.3 8.8 35 9.0 E 20 30 11 16 1013.1 1013.1 0.0
28/01:00pm 26.4 23.0 11.3 39 8.6 ESE 20 28 11 15 1013.5 1013.5 0.0
28/12:30pm 26.3 23.1 12.0 41 8.2 ESE 20 26 11 14 1014.0 1014.0 0.0
28/12:00pm 26.7 23.4 11.6 39 8.6 ESE 20 30 11 16 1014.2 1014.2 0.0
28/11:30am 26.1 22.3 9.9 36 9.0 ESE 20 26 11 14 1014.7 1014.7 0.0
28/11:00am 26.4 22.4 10.5 37 8.9 ESE 22 28 12 15 1014.9 1014.9 0.0
28/10:30am 26.5 23.1 11.4 39 8.6 ESE 20 26 11 14 1015.5 1015.5 0.0
28/10:00am 26.5 22.9 10.6 37 8.9 SE 20 28 11 15 1015.8 1015.8 0.0
28/09:30am 26.3 22.6 10.0 36 9.0 SE 20 26 11 14 1015.7 1015.7 0.0
28/09:00am 25.1 22.0 10.2 39 8.2 SSE 17 24 9 13 1016.1 1016.1 0.0
28/08:30am 24.4 23.2 12.7 48 6.7 S 11 22 6 12 1015.7 1015.7 0.0
28/08:00am 22.1 21.0 13.2 57 5.1 SSW 11 15 6 8 1015.6 1015.6 0.0
28/07:30am 20.6 20.9 16.0 75 2.8 WSW 9 11 5 6 1015.1 1015.1 0.0
28/07:00am 18.7 18.9 14.6 77 2.4 SW 7 7 4 4 1014.7 1014.7 0.0
28/06:30am 17.1 17.5 15.3 89 1.0 W 7 7 4 4 1014.5 1014.5 0.0
28/06:00am 16.1 16.3 14.8 92 0.7 WSW 7 7 4 4 1014.2 1014.2 0.0
28/05:30am 15.5 15.3 14.7 95 0.5 WSW 9 9 5 5 1014.2 1014.2 0.0
28/05:00am 15.7 14.8 14.9 95 0.5 WSW 13 15 7 8 1013.7 1013.7 0.0
28/04:30am 15.8 16.0 14.8 94 0.6 WSW 7 9 4 5 1013.2 1013.2 0.0
28/04:00am 15.8 15.6 14.7 93 0.6 WSW 9 11 5 6 1013.0 1013.0 0.0
28/03:30am 15.9 15.7 14.6 92 0.7 WSW 9 11 5 6 1013.0 1013.0 0.0
28/03:00am 16.7 16.1 14.7 88 1.1 WSW 11 13 6 7 1013.1 1013.1 0.0
28/02:30am 16.4 16.2 14.8 90 0.9 SW 9 9 5 5 1013.2 1013.2 0.0
28/02:00am 17.1 17.8 15.6 91 0.9 SW 6 6 3 3 1013.3 1013.3 0.0
28/01:30am 17.8 18.5 16.1 90 1.0 SW 7 9 4 5 1013.6 1013.6 0.0
28/01:00am 17.4 17.6 15.7 90 1.0 SSW 9 11 5 6 1014.0 1014.0 0.0
28/12:30am 17.7 17.7 16.2 91 0.9 SW 11 13 6 7 1014.1 1014.1 0.0
28/12:00am 17.8 17.3 15.8 88 1.2 SW 13 13 7 7 1014.1 1014.1 0.0
 
Date/Time
EST
Temp
°C
App
Temp
°C
Dew
Point
°C
Rel
Hum
%
Delta-T
°C
Wind Press
QNH
hPa
Press
MSL
hPa
Rain since
9am
mm
Dir  Spd
km/h
Gust
km/h
Spd
kts
Gust
kts
27/11:30pm 18.3 18.2 15.9 86 1.4 SW 11 13 6 7 1014.1 1014.1 0.0
27/11:00pm 19.3 20.3 16.9 86 1.5 SW 7 9 4 5 1014.4 1014.4 0.0
27/10:30pm 19.1 20.2 16.5 85 1.6 SW 6 6 3 3 1014.4 1014.4 0.0
27/10:00pm 19.5 21.5 16.9 85 1.6 SW 2 6 1 3 1014.6 1014.6 0.0
27/09:30pm 19.3 19.5 16.7 85 1.6 SW 11 13 6 7 1014.8 1014.8 0.0
27/09:00pm 20.6 21.7 17.2 81 2.1 NNE 7 7 4 4 1014.4 1014.4 0.0
27/08:30pm 20.9 22.4 17.7 82 2.0 NNE 6 7 3 4 1014.5 1014.5 0.0
27/08:00pm 22.4 24.1 18.6 79 2.4 NNE 7 9 4 5 1014.0 1014.0 0.0
27/07:30pm 22.2 25.3 18.6 80 2.3 CALM 0 0 0 0 1013.7 1013.7 0.0
27/07:00pm 22.3 23.4 18.9 81 2.1 NE 11 13 6 7 1012.9 1012.9 0.0
27/06:30pm 23.1 24.6 17.6 71 3.4 E 6 7 3 4 1013.1 1013.1 0.0
27/06:00pm 24.0 25.0 17.7 68 3.9 E 9 13 5 7 1012.8 1012.8 0.0
27/05:30pm 25.0 24.5 17.7 64 4.6 E 17 20 9 11 1012.3 1012.3 0.0
27/05:00pm 25.6 24.1 17.8 62 4.9 ESE 22 26 12 14 1012.1 1012.1 0.0
27/04:30pm 25.9 24.4 17.8 61 5.1 E 22 28 12 15 1011.7 1011.7 0.0
27/04:00pm 26.2 23.7 17.0 57 5.7 ESE 26 33 14 18 1011.6 1011.6 0.0
27/03:30pm 26.3 23.7 16.8 56 5.9 ESE 26 30 14 16 1011.5 1011.5 0.0
27/03:00pm 26.4 23.7 16.6 55 6.1 ESE 26 33 14 18 1011.5 1011.5 0.0
27/02:30pm 26.6 24.6 18.2 60 5.3 ESE 26 33 14 18 1011.7 1011.7 0.0
27/02:00pm 26.9 25.3 19.3 63 4.9 E 26 32 14 17 1011.9 1011.9 0.0
27/01:30pm 26.9 25.0 19.3 63 4.9 E 28 35 15 19 1012.0 1012.0 0.0
27/01:00pm 26.8 25.4 20.4 68 4.2 ESE 28 32 15 17 1012.5 1012.5 0.0
27/12:30pm 26.9 25.5 20.5 68 4.2 ESE 28 35 15 19 1012.9 1012.9 0.0
27/12:00pm 27.6 26.6 19.7 62 5.1 E 24 30 13 16 1013.1 1013.1 0.0
27/11:30am 26.8 27.2 20.9 70 3.9 E 20 28 11 15 1013.9 1013.9 0.0
27/11:00am 27.2 28.3 21.2 69 4.0 E 17 19 9 10 1014.3 1014.3 0.0
27/10:30am 28.0 30.2 21.1 66 4.6 E 11 17 6 9 1014.6 1014.6 0.0
27/10:00am 27.5 28.2 16.1 49 7.0 SW 7 11 4 6 1014.7 1014.7 0.0
27/09:30am 26.2 27.3 18.1 61 5.1 WNW 9 15 5 8 1015.3 1015.3 0.0
27/09:00am 25.0 26.6 19.1 70 3.8 WNW 9 13 5 7 1015.4 1015.4 0.2
27/08:30am 23.3 25.2 19.0 77 2.7 WNW 7 13 4 7 1015.3 1015.3 0.2
27/08:00am 21.9 22.9 18.7 82 2.0 W 11 15 6 8 1015.1 1015.1 0.2
27/07:30am 20.6 21.9 18.4 87 1.4 WNW 9 13 5 7 1014.9 1014.9 0.2
27/07:00am 18.5 18.9 17.2 92 0.8 WSW 11 15 6 8 1014.9 1014.9 0.2
27/06:30am 16.9 18.3 16.3 96 0.4 W 4 7 2 4 1014.4 1014.4 0.2

Other Formats:

Comma delimited format used in spreadsheet applications
http://www.bom.gov.au/fwo/IDQ60801/IDQ60801.95367.axf

JavaScript Object Notation format (JSON) in row-major order
http://www.bom.gov.au/fwo/IDQ60801/IDQ60801.95367.json